Check out our new BloomSky Weather System.

Active alerts

Galveston, TX
  Details for Galveston, TX Rip Current Statement


Thunder radar  blitzortung!


Rain radar more information rain snow radar


Visit our other weather sites:

Template documentation
and downloads

And another site



Weather Underground History page Text

Daily Summary for January 21, 2018 Units:  Both    English   Metric
« Previous Day
Next Day »
Daily Weekly Monthly Yearly Custom
  High: Low: Average:
Temperature: TemperatureF °F /  -17.8 °C 66.2 °F /  19 °C 68.9 °F /  20.5 °C
Dew Point: DewpointF °F /  -17.8 °C 64.9 °F /  18.3 °C 66.1 °F /  18.9 °C
Humidity: Humidity % 76 % 91 %
Wind Speed: WindSpeedMPH mph /  0 km/h - 5.9 mph /  9.5 km/h
Wind Gust: WindSpeedGustMPH mph /  0 km/h - -
Wind:- - SSE
Pressure: PressureIn in /  0 hPa 29.85 in /  1010.7 hPa -
Precipitation: 0.00 in /  0 mm    
Historical Graphs
 
 
Tabular Data for January 21, 2018
Time Temperature Dew Point Pressure Wind Wind Speed Wind Gust Humidity Rainfall Rate (Hourly)
TemperatureF °F /  -17.8 °C DewpointF °F /  -17.8 °C PressureIn in /  0 hPa Calm     Humidity % HourlyPrecipIn in /  0 mm
00:02 66.9 °F /  19.4 °C 65.5 °F /  18.6 °C 30.03 in /  1016.8 hPa SSE 9.0 mph /  14.5 km/h 14.0 mph /  22.5 km/h 95 % 0.00 in /  0 mm
00:07 66.9 °F /  19.4 °C 65.5 °F /  18.6 °C 30.02 in /  1016.5 hPa SSE 6.0 mph /  9.7 km/h 14.0 mph /  22.5 km/h 95 % 0.00 in /  0 mm
00:12 66.9 °F /  19.4 °C 65.5 °F /  18.6 °C 30.02 in /  1016.5 hPa SSE 3.0 mph /  4.8 km/h 14.0 mph /  22.5 km/h 95 % 0.00 in /  0 mm
00:17 66.9 °F /  19.4 °C 65.5 °F /  18.6 °C 30.02 in /  1016.5 hPa ESE 6.0 mph /  9.7 km/h 11.0 mph /  17.7 km/h 95 % 0.00 in /  0 mm
00:27 66.9 °F /  19.4 °C 65.5 °F /  18.6 °C 30.02 in /  1016.5 hPa SSE 9.0 mph /  14.5 km/h 13.0 mph /  20.9 km/h 95 % 0.00 in /  0 mm
00:32 66.9 °F /  19.4 °C 65.5 °F /  18.6 °C 30.02 in /  1016.5 hPa SE 7.0 mph /  11.3 km/h 13.0 mph /  20.9 km/h 95 % 0.00 in /  0 mm
00:37 66.9 °F /  19.4 °C 65.5 °F /  18.6 °C 30.02 in /  1016.5 hPa SSW 5.0 mph /  8 km/h 14.0 mph /  22.5 km/h 95 % 0.00 in /  0 mm
00:42 66.9 °F /  19.4 °C 65.5 °F /  18.6 °C 30.01 in /  1016.1 hPa SSE 6.0 mph /  9.7 km/h 14.0 mph /  22.5 km/h 95 % 0.00 in /  0 mm
00:47 66.9 °F /  19.4 °C 65.5 °F /  18.6 °C 30.01 in /  1016.1 hPa ESE 5.0 mph /  8 km/h 14.0 mph /  22.5 km/h 95 % 0.00 in /  0 mm
00:52 66.9 °F /  19.4 °C 65.5 °F /  18.6 °C 30.01 in /  1016.1 hPa SSW 4.0 mph /  6.4 km/h 12.0 mph /  19.3 km/h 95 % 0.00 in /  0 mm
00:57 66.9 °F /  19.4 °C 65.5 °F /  18.6 °C 30.01 in /  1016.1 hPa SE 4.0 mph /  6.4 km/h 12.0 mph /  19.3 km/h 95 % 0.00 in /  0 mm
01:02 66.9 °F /  19.4 °C 65.5 °F /  18.6 °C 30.01 in /  1016.1 hPa SE 10.0 mph /  16.1 km/h 12.0 mph /  19.3 km/h 95 % 0.00 in /  0 mm
01:08 66.9 °F /  19.4 °C 65.5 °F /  18.6 °C 30.01 in /  1016.1 hPa SSW 5.0 mph /  8 km/h 13.0 mph /  20.9 km/h 95 % 0.00 in /  0 mm
01:13 66.9 °F /  19.4 °C 65.5 °F /  18.6 °C 30.01 in /  1016.1 hPa SSE 5.0 mph /  8 km/h 13.0 mph /  20.9 km/h 95 % 0.00 in /  0 mm
01:18 66.9 °F /  19.4 °C 65.5 °F /  18.6 °C 30.01 in /  1016.1 hPa SSE 4.0 mph /  6.4 km/h 13.0 mph /  20.9 km/h 95 % 0.00 in /  0 mm
01:23 67.1 °F /  19.5 °C 65.7 °F /  18.7 °C 30.01 in /  1016.1 hPa SSW 5.0 mph /  8 km/h 11.0 mph /  17.7 km/h 95 % 0.00 in /  0 mm
01:28 67.1 °F /  19.5 °C 65.7 °F /  18.7 °C 30.01 in /  1016.1 hPa South 4.0 mph /  6.4 km/h 11.0 mph /  17.7 km/h 95 % 0.00 in /  0 mm
01:33 67.1 °F /  19.5 °C 65.7 °F /  18.7 °C 30.01 in /  1016.1 hPa SSW 5.0 mph /  8 km/h 11.0 mph /  17.7 km/h 95 % 0.00 in /  0 mm
01:38 67.1 °F /  19.5 °C 65.7 °F /  18.7 °C 30.01 in /  1016.1 hPa South 6.0 mph /  9.7 km/h 11.0 mph /  17.7 km/h 95 % 0.00 in /  0 mm
01:43 67.1 °F /  19.5 °C 65.7 °F /  18.7 °C 30.01 in /  1016.1 hPa SSW 5.0 mph /  8 km/h 11.0 mph /  17.7 km/h 95 % 0.00 in /  0 mm
01:48 67.1 °F /  19.5 °C 65.7 °F /  18.7 °C 30.01 in /  1016.1 hPa SSW 5.0 mph /  8 km/h 9.0 mph /  14.5 km/h 95 % 0.00 in /  0 mm
01:53 67.1 °F /  19.5 °C 65.7 °F /  18.7 °C 30.01 in /  1016.1 hPa SSE 3.0 mph /  4.8 km/h 11.0 mph /  17.7 km/h 95 % 0.00 in /  0 mm
01:58 66.9 °F /  19.4 °C 65.5 °F /  18.6 °C 30.01 in /  1016.1 hPa SSE 4.0 mph /  6.4 km/h 12.0 mph /  19.3 km/h 95 % 0.00 in /  0 mm
02:03 66.9 °F /  19.4 °C 65.5 °F /  18.6 °C 30.00 in /  1015.8 hPa SSE 2.0 mph /  3.2 km/h 12.0 mph /  19.3 km/h 95 % 0.00 in /  0 mm
02:08 66.9 °F /  19.4 °C 65.5 °F /  18.6 °C 30.00 in /  1015.8 hPa SSE 8.0 mph /  12.9 km/h 12.0 mph /  19.3 km/h 95 % 0.00 in /  0 mm
02:13 66.9 °F /  19.4 °C 65.5 °F /  18.6 °C 30.00 in /  1015.8 hPa SE 9.0 mph /  14.5 km/h 9.0 mph /  14.5 km/h 95 % 0.00 in /  0 mm
02:23 66.9 °F /  19.4 °C 65.5 °F /  18.6 °C 30.00 in /  1015.8 hPa SSW 2.0 mph /  3.2 km/h 11.0 mph /  17.7 km/h 95 % 0.00 in /  0 mm
02:28 66.9 °F /  19.4 °C 65.5 °F /  18.6 °C 30.00 in /  1015.8 hPa ESE 8.0 mph /  12.9 km/h 11.0 mph /  17.7 km/h 95 % 0.00 in /  0 mm
02:33 66.9 °F /  19.4 °C 65.5 °F /  18.6 °C 29.99 in /  1015.5 hPa ESE 4.0 mph /  6.4 km/h 11.0 mph /  17.7 km/h 95 % 0.00 in /  0 mm
02:38 66.9 °F /  19.4 °C 65.5 °F /  18.6 °C 29.99 in /  1015.5 hPa South 4.0 mph /  6.4 km/h 8.0 mph /  12.9 km/h 95 % 0.00 in /  0 mm
02:48 66.9 °F /  19.4 °C 65.5 °F /  18.6 °C 29.99 in /  1015.5 hPa SSE 6.0 mph /  9.7 km/h 11.0 mph /  17.7 km/h 95 % 0.00 in /  0 mm
02:53 66.9 °F /  19.4 °C 65.5 °F /  18.6 °C 29.99 in /  1015.5 hPa SSW 5.0 mph /  8 km/h 13.0 mph /  20.9 km/h 95 % 0.00 in /  0 mm
02:58 66.9 °F /  19.4 °C 65.5 °F /  18.6 °C 29.99 in /  1015.5 hPa SE 8.0 mph /  12.9 km/h 13.0 mph /  20.9 km/h 95 % 0.00 in /  0 mm
03:03 66.9 °F /  19.4 °C 65.5 °F /  18.6 °C 29.99 in /  1015.5 hPa South 4.0 mph /  6.4 km/h 13.0 mph /  20.9 km/h 95 % 0.00 in /  0 mm
03:08 67.1 °F /  19.5 °C 65.7 °F /  18.7 °C 29.99 in /  1015.5 hPa SSW 5.0 mph /  8 km/h 13.0 mph /  20.9 km/h 95 % 0.00 in /  0 mm
03:14 67.1 °F /  19.5 °C 65.7 °F /  18.7 °C 30.00 in /  1015.8 hPa SSW 9.0 mph /  14.5 km/h 13.0 mph /  20.9 km/h 95 % 0.00 in /  0 mm
03:19 67.1 °F /  19.5 °C 65.7 °F /  18.7 °C 29.99 in /  1015.5 hPa SSE 4.0 mph /  6.4 km/h 13.0 mph /  20.9 km/h 95 % 0.00 in /  0 mm
03:24 67.1 °F /  19.5 °C 65.7 °F /  18.7 °C 29.99 in /  1015.5 hPa SSE 8.0 mph /  12.9 km/h 13.0 mph /  20.9 km/h 95 % 0.00 in /  0 mm
03:29 67.3 °F /  19.6 °C 65.8 °F /  18.8 °C 29.99 in /  1015.5 hPa SSW 7.0 mph /  11.3 km/h 12.0 mph /  19.3 km/h 95 % 0.00 in /  0 mm
03:34 67.3 °F /  19.6 °C 65.8 °F /  18.8 °C 29.99 in /  1015.5 hPa SSE 4.0 mph /  6.4 km/h 12.0 mph /  19.3 km/h 95 % 0.00 in /  0 mm
03:39 67.3 °F /  19.6 °C 65.8 °F /  18.8 °C 29.99 in /  1015.5 hPa SSE 7.0 mph /  11.3 km/h 12.0 mph /  19.3 km/h 95 % 0.00 in /  0 mm
03:44 67.3 °F /  19.6 °C 65.8 °F /  18.8 °C 29.98 in /  1015.1 hPa SE 5.0 mph /  8 km/h 12.0 mph /  19.3 km/h 95 % 0.00 in /  0 mm
03:49 67.3 °F /  19.6 °C 65.8 °F /  18.8 °C 29.99 in /  1015.5 hPa SSE 5.0 mph /  8 km/h 14.0 mph /  22.5 km/h 95 % 0.00 in /  0 mm
03:54 67.3 °F /  19.6 °C 65.8 °F /  18.8 °C 29.98 in /  1015.1 hPa South 2.0 mph /  3.2 km/h 14.0 mph /  22.5 km/h 95 % 0.00 in /  0 mm
03:59 67.1 °F /  19.5 °C 65.7 °F /  18.7 °C 29.98 in /  1015.1 hPa South 5.0 mph /  8 km/h 14.0 mph /  22.5 km/h 95 % 0.00 in /  0 mm
04:04 67.1 °F /  19.5 °C 65.7 °F /  18.7 °C 29.98 in /  1015.1 hPa SE 3.0 mph /  4.8 km/h 10.0 mph /  16.1 km/h 95 % 0.00 in /  0 mm
04:09 66.9 °F /  19.4 °C 65.5 °F /  18.6 °C 29.98 in /  1015.1 hPa SE 5.0 mph /  8 km/h 10.0 mph /  16.1 km/h 95 % 0.00 in /  0 mm
04:14 66.9 °F /  19.4 °C 65.5 °F /  18.6 °C 29.98 in /  1015.1 hPa SE 5.0 mph /  8 km/h 10.0 mph /  16.1 km/h 95 % 0.00 in /  0 mm
04:19 66.9 °F /  19.4 °C 65.5 °F /  18.6 °C 29.98 in /  1015.1 hPa SE 3.0 mph /  4.8 km/h 13.0 mph /  20.9 km/h 95 % 0.00 in /  0 mm
04:24 66.9 °F /  19.4 °C 65.5 °F /  18.6 °C 29.98 in /  1015.1 hPa SE 6.0 mph /  9.7 km/h 13.0 mph /  20.9 km/h 95 % 0.00 in /  0 mm
04:29 66.9 °F /  19.4 °C 65.5 °F /  18.6 °C 29.98 in /  1015.1 hPa South 5.0 mph /  8 km/h 13.0 mph /  20.9 km/h 95 % 0.00 in /  0 mm
04:34 66.9 °F /  19.4 °C 65.5 °F /  18.6 °C 29.98 in /  1015.1 hPa ESE 4.0 mph /  6.4 km/h 12.0 mph /  19.3 km/h 95 % 0.00 in /  0 mm
04:39 66.9 °F /  19.4 °C 65.5 °F /  18.6 °C 29.98 in /  1015.1 hPa SSE 4.0 mph /  6.4 km/h 9.0 mph /  14.5 km/h 95 % 0.00 in /  0 mm
04:44 66.9 °F /  19.4 °C 65.5 °F /  18.6 °C 29.97 in /  1014.8 hPa SSE 3.0 mph /  4.8 km/h 9.0 mph /  14.5 km/h 95 % 0.00 in /  0 mm
04:49 66.9 °F /  19.4 °C 65.5 °F /  18.6 °C 29.97 in /  1014.8 hPa SE 4.0 mph /  6.4 km/h 10.0 mph /  16.1 km/h 95 % 0.00 in /  0 mm
04:54 66.7 °F /  19.3 °C 65.3 °F /  18.5 °C 29.97 in /  1014.8 hPa SW 5.0 mph /  8 km/h 10.0 mph /  16.1 km/h 95 % 0.00 in /  0 mm
04:59 66.7 °F /  19.3 °C 65.3 °F /  18.5 °C 29.97 in /  1014.8 hPa SSE 3.0 mph /  4.8 km/h 10.0 mph /  16.1 km/h 95 % 0.00 in /  0 mm
05:05 66.7 °F /  19.3 °C 65.3 °F /  18.5 °C 29.97 in /  1014.8 hPa ESE 9.0 mph /  14.5 km/h 9.0 mph /  14.5 km/h 95 % 0.00 in /  0 mm
05:10 66.7 °F /  19.3 °C 65.3 °F /  18.5 °C 29.97 in /  1014.8 hPa SE 4.0 mph /  6.4 km/h 10.0 mph /  16.1 km/h 95 % 0.00 in /  0 mm
05:15 66.7 °F /  19.3 °C 65.3 °F /  18.5 °C 29.97 in /  1014.8 hPa SE 4.0 mph /  6.4 km/h 10.0 mph /  16.1 km/h 95 % 0.00 in /  0 mm
05:20 66.7 °F /  19.3 °C 65.3 °F /  18.5 °C 29.98 in /  1015.1 hPa SE 6.0 mph /  9.7 km/h 11.0 mph /  17.7 km/h 95 % 0.00 in /  0 mm
05:25 66.7 °F /  19.3 °C 65.3 °F /  18.5 °C 29.98 in /  1015.1 hPa SSE 6.0 mph /  9.7 km/h 11.0 mph /  17.7 km/h 95 % 0.00 in /  0 mm
05:30 66.7 °F /  19.3 °C 65.3 °F /  18.5 °C 29.97 in /  1014.8 hPa South 6.0 mph /  9.7 km/h 10.0 mph /  16.1 km/h 95 % 0.00 in /  0 mm
05:35 66.7 °F /  19.3 °C 65.3 °F /  18.5 °C 29.97 in /  1014.8 hPa SSE 3.0 mph /  4.8 km/h 11.0 mph /  17.7 km/h 95 % 0.00 in /  0 mm
05:40 66.7 °F /  19.3 °C 65.3 °F /  18.5 °C 29.97 in /  1014.8 hPa SSW 4.0 mph /  6.4 km/h 11.0 mph /  17.7 km/h 95 % 0.00 in /  0 mm
05:45 66.7 °F /  19.3 °C 65.3 °F /  18.5 °C 29.98 in /  1015.1 hPa SSE 9.0 mph /  14.5 km/h 11.0 mph /  17.7 km/h 95 % 0.00 in /  0 mm
05:50 66.7 °F /  19.3 °C 65.3 °F /  18.5 °C 29.98 in /  1015.1 hPa SE 7.0 mph /  11.3 km/h 12.0 mph /  19.3 km/h 95 % 0.00 in /  0 mm
05:55 66.7 °F /  19.3 °C 65.3 °F /  18.5 °C 29.97 in /  1014.8 hPa SSW 9.0 mph /  14.5 km/h 12.0 mph /  19.3 km/h 95 % 0.00 in /  0 mm
06:00 66.7 °F /  19.3 °C 65.3 °F /  18.5 °C 29.97 in /  1014.8 hPa South 5.0 mph /  8 km/h 12.0 mph /  19.3 km/h 95 % 0.00 in /  0 mm
06:05 66.7 °F /  19.3 °C 65.3 °F /  18.5 °C 29.98 in /  1015.1 hPa ESE 5.0 mph /  8 km/h 11.0 mph /  17.7 km/h 95 % 0.00 in /  0 mm
06:10 66.7 °F /  19.3 °C 65.3 °F /  18.5 °C 29.97 in /  1014.8 hPa SE 6.0 mph /  9.7 km/h 11.0 mph /  17.7 km/h 95 % 0.00 in /  0 mm
06:15 66.7 °F /  19.3 °C 65.3 °F /  18.5 °C 29.97 in /  1014.8 hPa SE 5.0 mph /  8 km/h 10.0 mph /  16.1 km/h 95 % 0.00 in /  0 mm
06:20 66.7 °F /  19.3 °C 65.3 °F /  18.5 °C 29.97 in /  1014.8 hPa SE 8.0 mph /  12.9 km/h 10.0 mph /  16.1 km/h 95 % 0.00 in /  0 mm
06:25 66.7 °F /  19.3 °C 65.3 °F /  18.5 °C 29.97 in /  1014.8 hPa ESE 9.0 mph /  14.5 km/h 12.0 mph /  19.3 km/h 95 % 0.00 in /  0 mm
06:30 66.7 °F /  19.3 °C 65.3 °F /  18.5 °C 29.97 in /  1014.8 hPa ESE 5.0 mph /  8 km/h 12.0 mph /  19.3 km/h 95 % 0.00 in /  0 mm
06:35 66.7 °F /  19.3 °C 65.3 °F /  18.5 °C 29.97 in /  1014.8 hPa SE 5.0 mph /  8 km/h 12.0 mph /  19.3 km/h 95 % 0.00 in /  0 mm
06:40 66.7 °F /  19.3 °C 65.3 °F /  18.5 °C 29.97 in /  1014.8 hPa ESE 7.0 mph /  11.3 km/h 10.0 mph /  16.1 km/h 95 % 0.00 in /  0 mm
06:45 66.6 °F /  19.2 °C 65.1 °F /  18.4 °C 29.97 in /  1014.8 hPa ESE 4.0 mph /  6.4 km/h 9.0 mph /  14.5 km/h 95 % 0.00 in /  0 mm
06:50 66.6 °F /  19.2 °C 65.1 °F /  18.4 °C 29.97 in /  1014.8 hPa East 5.0 mph /  8 km/h 10.0 mph /  16.1 km/h 95 % 0.00 in /  0 mm
06:55 66.6 °F /  19.2 °C 65.1 °F /  18.4 °C 29.97 in /  1014.8 hPa SSE 6.0 mph /  9.7 km/h 10.0 mph /  16.1 km/h 95 % 0.00 in /  0 mm
07:00 66.6 °F /  19.2 °C 65.1 °F /  18.4 °C 29.96 in /  1014.4 hPa SE 4.0 mph /  6.4 km/h 11.0 mph /  17.7 km/h 95 % 0.00 in /  0 mm
07:06 66.4 °F /  19.1 °C 64.9 °F /  18.3 °C 29.96 in /  1014.4 hPa SE 3.0 mph /  4.8 km/h 11.0 mph /  17.7 km/h 95 % 0.00 in /  0 mm
07:11 66.4 °F /  19.1 °C 64.9 °F /  18.3 °C 29.96 in /  1014.4 hPa ESE 6.0 mph /  9.7 km/h 12.0 mph /  19.3 km/h 95 % 0.00 in /  0 mm
07:16 66.4 °F /  19.1 °C 64.9 °F /  18.3 °C 29.96 in /  1014.4 hPa SE 4.0 mph /  6.4 km/h 12.0 mph /  19.3 km/h 95 % 0.00 in /  0 mm
07:21 66.4 °F /  19.1 °C 64.9 °F /  18.3 °C 29.96 in /  1014.4 hPa SE 4.0 mph /  6.4 km/h 12.0 mph /  19.3 km/h 95 % 0.00 in /  0 mm
07:26 66.4 °F /  19.1 °C 65.1 °F /  18.4 °C 29.96 in /  1014.4 hPa SSE 3.0 mph /  4.8 km/h 10.0 mph /  16.1 km/h 96 % 0.00 in /  0 mm
07:31 66.4 °F /  19.1 °C 65.1 °F /  18.4 °C 29.97 in /  1014.8 hPa SE 6.0 mph /  9.7 km/h 9.0 mph /  14.5 km/h 96 % 0.00 in /  0 mm
07:36 66.4 °F /  19.1 °C 65.1 °F /  18.4 °C 29.97 in /  1014.8 hPa SSE 3.0 mph /  4.8 km/h 8.0 mph /  12.9 km/h 96 % 0.00 in /  0 mm
07:41 66.4 °F /  19.1 °C 65.1 °F /  18.4 °C 29.97 in /  1014.8 hPa South 4.0 mph /  6.4 km/h 8.0 mph /  12.9 km/h 96 % 0.00 in /  0 mm
07:46 66.4 °F /  19.1 °C 65.1 °F /  18.4 °C 29.97 in /  1014.8 hPa SSE 4.0 mph /  6.4 km/h 9.0 mph /  14.5 km/h 96 % 0.00 in /  0 mm
07:51 66.4 °F /  19.1 °C 65.1 °F /  18.4 °C 29.97 in /  1014.8 hPa SE 3.0 mph /  4.8 km/h 9.0 mph /  14.5 km/h 96 % 0.00 in /  0 mm
07:56 66.4 °F /  19.1 °C 65.1 °F /  18.4 °C 29.97 in /  1014.8 hPa SE 1.0 mph /  1.6 km/h 9.0 mph /  14.5 km/h 96 % 0.00 in /  0 mm
08:01 66.4 °F /  19.1 °C 65.1 °F /  18.4 °C 29.97 in /  1014.8 hPa ESE 7.0 mph /  11.3 km/h 9.0 mph /  14.5 km/h 96 % 0.00 in /  0 mm
08:06 66.4 °F /  19.1 °C 65.1 °F /  18.4 °C 29.98 in /  1015.1 hPa SSE 5.0 mph /  8 km/h 8.0 mph /  12.9 km/h 96 % 0.00 in /  0 mm
08:11 66.2 °F /  19 °C 64.9 °F /  18.3 °C 29.97 in /  1014.8 hPa SE 7.0 mph /  11.3 km/h 8.0 mph /  12.9 km/h 96 % 0.00 in /  0 mm
08:16 66.2 °F /  19 °C 64.9 °F /  18.3 °C 29.98 in /  1015.1 hPa South 5.0 mph /  8 km/h 8.0 mph /  12.9 km/h 96 % 0.00 in /  0 mm
08:21 66.2 °F /  19 °C 64.9 °F /  18.3 °C 29.98 in /  1015.1 hPa SSE 4.0 mph /  6.4 km/h 8.0 mph /  12.9 km/h 96 % 0.00 in /  0 mm
08:26 66.4 °F /  19.1 °C 65.1 °F /  18.4 °C 29.98 in /  1015.1 hPa SE 3.0 mph /  4.8 km/h 8.0 mph /  12.9 km/h 96 % 0.00 in /  0 mm
08:31 66.4 °F /  19.1 °C 65.1 °F /  18.4 °C 29.99 in /  1015.5 hPa SE 2.0 mph /  3.2 km/h 8.0 mph /  12.9 km/h 96 % 0.00 in /  0 mm
08:36 66.4 °F /  19.1 °C 65.1 °F /  18.4 °C 29.99 in /  1015.5 hPa SSE 3.0 mph /  4.8 km/h 8.0 mph /  12.9 km/h 96 % 0.00 in /  0 mm
08:41 66.6 °F /  19.2 °C 65.3 °F /  18.5 °C 29.99 in /  1015.5 hPa SSE 5.0 mph /  8 km/h 9.0 mph /  14.5 km/h 96 % 0.00 in /  0 mm
08:46 66.6 °F /  19.2 °C 65.3 °F /  18.5 °C 29.99 in /  1015.5 hPa ESE 7.0 mph /  11.3 km/h 9.0 mph /  14.5 km/h 96 % 0.00 in /  0 mm
08:51 66.7 °F /  19.3 °C 65.5 °F /  18.6 °C 29.99 in /  1015.5 hPa South 6.0 mph /  9.7 km/h 9.0 mph /  14.5 km/h 96 % 0.00 in /  0 mm
08:56 66.7 °F /  19.3 °C 65.3 °F /  18.5 °C 29.99 in /  1015.5 hPa ESE 3.0 mph /  4.8 km/h 10.0 mph /  16.1 km/h 95 % 0.00 in /  0 mm
09:01 66.9 °F /  19.4 °C 65.5 °F /  18.6 °C 29.99 in /  1015.5 hPa SE 8.0 mph /  12.9 km/h 12.0 mph /  19.3 km/h 95 % 0.00 in /  0 mm
09:06 67.3 °F /  19.6 °C 65.8 °F /  18.8 °C 29.99 in /  1015.5 hPa SE 6.0 mph /  9.7 km/h 12.0 mph /  19.3 km/h 95 % 0.00 in /  0 mm
09:11 67.5 °F /  19.7 °C 66.0 °F /  18.9 °C 29.99 in /  1015.5 hPa SSE 10.0 mph /  16.1 km/h 12.0 mph /  19.3 km/h 95 % 0.00 in /  0 mm
09:17 67.6 °F /  19.8 °C 66.2 °F /  19 °C 29.99 in /  1015.5 hPa SSE 11.0 mph /  17.7 km/h 13.0 mph /  20.9 km/h 95 % 0.00 in /  0 mm
09:22 67.8 °F /  19.9 °C 66.0 °F /  18.9 °C 30.00 in /  1015.8 hPa SSE 6.0 mph /  9.7 km/h 13.0 mph /  20.9 km/h 94 % 0.00 in /  0 mm
09:27 68.0 °F /  20 °C 65.8 °F /  18.8 °C 30.00 in /  1015.8 hPa SE 6.0 mph /  9.7 km/h 13.0 mph /  20.9 km/h 93 % 0.00 in /  0 mm
09:32 68.2 °F /  20.1 °C 66.0 °F /  18.9 °C 30.00 in /  1015.8 hPa SSE 5.0 mph /  8 km/h 12.0 mph /  19.3 km/h 93 % 0.00 in /  0 mm
09:37 68.4 °F /  20.2 °C 66.0 °F /  18.9 °C 30.00 in /  1015.8 hPa SE 6.0 mph /  9.7 km/h 12.0 mph /  19.3 km/h 92 % 0.00 in /  0 mm
09:42 68.5 °F /  20.3 °C 66.2 °F /  19 °C 30.00 in /  1015.8 hPa SE 7.0 mph /  11.3 km/h 12.0 mph /  19.3 km/h 92 % 0.00 in /  0 mm
09:47 68.5 °F /  20.3 °C 66.2 °F /  19 °C 30.00 in /  1015.8 hPa SSE 6.0 mph /  9.7 km/h 13.0 mph /  20.9 km/h 92 % 0.00 in /  0 mm
09:52 68.7 °F /  20.4 °C 66.4 °F /  19.1 °C 30.00 in /  1015.8 hPa ESE 5.0 mph /  8 km/h 13.0 mph /  20.9 km/h 92 % 0.00 in /  0 mm
09:57 68.9 °F /  20.5 °C 66.2 °F /  19 °C 30.01 in /  1016.1 hPa South 6.0 mph /  9.7 km/h 13.0 mph /  20.9 km/h 91 % 0.00 in /  0 mm
10:02 69.1 °F /  20.6 °C 66.4 °F /  19.1 °C 30.01 in /  1016.1 hPa South 4.0 mph /  6.4 km/h 11.0 mph /  17.7 km/h 91 % 0.00 in /  0 mm
10:07 69.1 °F /  20.6 °C 66.4 °F /  19.1 °C 30.01 in /  1016.1 hPa SE 9.0 mph /  14.5 km/h 12.0 mph /  19.3 km/h 91 % 0.00 in /  0 mm
10:12 69.1 °F /  20.6 °C 66.4 °F /  19.1 °C 30.00 in /  1015.8 hPa SSE 3.0 mph /  4.8 km/h 12.0 mph /  19.3 km/h 91 % 0.00 in /  0 mm
10:17 69.3 °F /  20.7 °C 66.6 °F /  19.2 °C 30.00 in /  1015.8 hPa SE 7.0 mph /  11.3 km/h 12.0 mph /  19.3 km/h 91 % 0.00 in /  0 mm
10:22 69.3 °F /  20.7 °C 66.6 °F /  19.2 °C 30.00 in /  1015.8 hPa SSE 5.0 mph /  8 km/h 12.0 mph /  19.3 km/h 91 % 0.00 in /  0 mm
10:27 69.6 °F /  20.9 °C 66.9 °F /  19.4 °C 30.00 in /  1015.8 hPa SSE 11.0 mph /  17.7 km/h 12.0 mph /  19.3 km/h 91 % 0.00 in /  0 mm
10:32 70.0 °F /  21.1 °C 66.9 °F /  19.4 °C 30.00 in /  1015.8 hPa SE 4.0 mph /  6.4 km/h 12.0 mph /  19.3 km/h 90 % 0.00 in /  0 mm
10:37 70.2 °F /  21.2 °C 67.1 °F /  19.5 °C 30.00 in /  1015.8 hPa SE 3.0 mph /  4.8 km/h 12.0 mph /  19.3 km/h 90 % 0.00 in /  0 mm
10:42 70.3 °F /  21.3 °C 66.9 °F /  19.4 °C 29.99 in /  1015.5 hPa South 4.0 mph /  6.4 km/h 12.0 mph /  19.3 km/h 89 % 0.00 in /  0 mm
10:47 70.3 °F /  21.3 °C 66.9 °F /  19.4 °C 29.99 in /  1015.5 hPa SSW 5.0 mph /  8 km/h 10.0 mph /  16.1 km/h 89 % 0.00 in /  0 mm
10:52 70.3 °F /  21.3 °C 66.9 °F /  19.4 °C 29.99 in /  1015.5 hPa SSW 3.0 mph /  4.8 km/h 13.0 mph /  20.9 km/h 89 % 0.00 in /  0 mm
10:57 70.5 °F /  21.4 °C 67.1 °F /  19.5 °C 29.99 in /  1015.5 hPa South 3.0 mph /  4.8 km/h 13.0 mph /  20.9 km/h 89 % 0.00 in /  0 mm
11:02 71.1 °F /  21.7 °C 67.6 °F /  19.8 °C 29.99 in /  1015.5 hPa SSE 7.0 mph /  11.3 km/h 13.0 mph /  20.9 km/h 89 % 0.00 in /  0 mm
11:07 71.4 °F /  21.9 °C 67.3 °F /  19.6 °C 29.99 in /  1015.5 hPa SSE 3.0 mph /  4.8 km/h 10.0 mph /  16.1 km/h 87 % 0.00 in /  0 mm
11:12 71.8 °F /  22.1 °C 67.6 °F /  19.8 °C 29.99 in /  1015.5 hPa SE 5.0 mph /  8 km/h 11.0 mph /  17.7 km/h 87 % 0.00 in /  0 mm
11:17 72.1 °F /  22.3 °C 67.5 °F /  19.7 °C 29.98 in /  1015.1 hPa SE 6.0 mph /  9.7 km/h 11.0 mph /  17.7 km/h 85 % 0.00 in /  0 mm
11:22 72.1 °F /  22.3 °C 67.5 °F /  19.7 °C 29.98 in /  1015.1 hPa SSE 7.0 mph /  11.3 km/h 11.0 mph /  17.7 km/h 85 % 0.00 in /  0 mm
11:27 72.3 °F /  22.4 °C 67.3 °F /  19.6 °C 29.98 in /  1015.1 hPa South 10.0 mph /  16.1 km/h 16.0 mph /  25.7 km/h 84 % 0.00 in /  0 mm
11:32 72.3 °F /  22.4 °C 67.3 °F /  19.6 °C 29.98 in /  1015.1 hPa SSW 6.0 mph /  9.7 km/h 16.0 mph /  25.7 km/h 84 % 0.00 in /  0 mm
11:37 72.3 °F /  22.4 °C 67.3 °F /  19.6 °C 29.97 in /  1014.8 hPa South 9.0 mph /  14.5 km/h 18.0 mph /  29 km/h 84 % 0.00 in /  0 mm
11:42 72.3 °F /  22.4 °C 67.3 °F /  19.6 °C 29.97 in /  1014.8 hPa SSE 5.0 mph /  8 km/h 18.0 mph /  29 km/h 84 % 0.00 in /  0 mm
11:47 72.9 °F /  22.7 °C 68.0 °F /  20 °C 29.96 in /  1014.4 hPa SE 7.0 mph /  11.3 km/h 18.0 mph /  29 km/h 85 % 0.00 in /  0 mm
11:52 73.2 °F /  22.9 °C 67.5 °F /  19.7 °C 29.96 in /  1014.4 hPa South 8.0 mph /  12.9 km/h 16.0 mph /  25.7 km/h 82 % 0.00 in /  0 mm
11:57 73.4 °F /  23 °C 67.3 °F /  19.6 °C 29.96 in /  1014.4 hPa SSE 9.0 mph /  14.5 km/h 14.0 mph /  22.5 km/h 81 % 0.00 in /  0 mm
12:02 73.4 °F /  23 °C 67.3 °F /  19.6 °C 29.95 in /  1014.1 hPa SE 8.0 mph /  12.9 km/h 14.0 mph /  22.5 km/h 81 % 0.00 in /  0 mm
12:07 73.8 °F /  23.2 °C 67.6 °F /  19.8 °C 29.95 in /  1014.1 hPa South 9.0 mph /  14.5 km/h 14.0 mph /  22.5 km/h 81 % 0.00 in /  0 mm
12:12 73.8 °F /  23.2 °C 67.6 °F /  19.8 °C 29.94 in /  1013.8 hPa SE 5.0 mph /  8 km/h 13.0 mph /  20.9 km/h 81 % 0.00 in /  0 mm
12:17 74.1 °F /  23.4 °C 67.6 °F /  19.8 °C 29.94 in /  1013.8 hPa SSE 6.0 mph /  9.7 km/h 13.0 mph /  20.9 km/h 80 % 0.00 in /  0 mm
12:22 74.3 °F /  23.5 °C 66.9 °F /  19.4 °C 29.93 in /  1013.4 hPa SSE 12.0 mph /  19.3 km/h 17.0 mph /  27.4 km/h 78 % 0.00 in /  0 mm
12:27 74.3 °F /  23.5 °C 66.9 °F /  19.4 °C 29.93 in /  1013.4 hPa SSW 10.0 mph /  16.1 km/h 23.0 mph /  37 km/h 78 % 0.00 in /  0 mm
12:32 74.3 °F /  23.5 °C 66.9 °F /  19.4 °C 29.92 in /  1013.1 hPa South 6.0 mph /  9.7 km/h 26.0 mph /  41.8 km/h 78 % 0.00 in /  0 mm
12:37 74.7 °F /  23.7 °C 66.9 °F /  19.4 °C 29.92 in /  1013.1 hPa SSE 13.0 mph /  20.9 km/h 26.0 mph /  41.8 km/h 77 % 0.00 in /  0 mm
12:42 74.8 °F /  23.8 °C 67.1 °F /  19.5 °C 29.92 in /  1013.1 hPa East 7.0 mph /  11.3 km/h 26.0 mph /  41.8 km/h 77 % 0.00 in /  0 mm
12:47 75.0 °F /  23.9 °C 66.9 °F /  19.4 °C 29.91 in /  1012.8 hPa SW 8.0 mph /  12.9 km/h 18.0 mph /  29 km/h 76 % 0.00 in /  0 mm
12:52 74.8 °F /  23.8 °C 66.7 °F /  19.3 °C 29.91 in /  1012.8 hPa South 9.0 mph /  14.5 km/h 18.0 mph /  29 km/h 76 % 0.00 in /  0 mm
12:57 74.7 °F /  23.7 °C 66.6 °F /  19.2 °C 29.91 in /  1012.8 hPa SSE 6.0 mph /  9.7 km/h 18.0 mph /  29 km/h 76 % 0.00 in /  0 mm
13:02 74.7 °F /  23.7 °C 66.6 °F /  19.2 °C 29.91 in /  1012.8 hPa South 11.0 mph /  17.7 km/h 19.0 mph /  30.6 km/h 76 % 0.00 in /  0 mm
13:07 74.5 °F /  23.6 °C 66.7 °F /  19.3 °C 29.91 in /  1012.8 hPa SSE 7.0 mph /  11.3 km/h 19.0 mph /  30.6 km/h 77 % 0.00 in /  0 mm
13:12 74.5 °F /  23.6 °C 66.7 °F /  19.3 °C 29.90 in /  1012.4 hPa South 9.0 mph /  14.5 km/h 19.0 mph /  30.6 km/h 77 % 0.00 in /  0 mm
13:17 74.5 °F /  23.6 °C 66.7 °F /  19.3 °C 29.90 in /  1012.4 hPa SSW 8.0 mph /  12.9 km/h 17.0 mph /  27.4 km/h 77 % 0.00 in /  0 mm
13:22 74.7 °F /  23.7 °C 66.9 °F /  19.4 °C 29.90 in /  1012.4 hPa SSW 11.0 mph /  17.7 km/h 17.0 mph /  27.4 km/h 77 % 0.00 in /  0 mm
13:27 74.5 °F /  23.6 °C 66.7 °F /  19.3 °C 29.89 in /  1012.1 hPa SSW 6.0 mph /  9.7 km/h 17.0 mph /  27.4 km/h 77 % 0.00 in /  0 mm
13:32 74.5 °F /  23.6 °C 66.7 °F /  19.3 °C 29.89 in /  1012.1 hPa SSE 6.0 mph /  9.7 km/h 17.0 mph /  27.4 km/h 77 % 0.00 in /  0 mm
13:37 74.7 °F /  23.7 °C 66.9 °F /  19.4 °C 29.89 in /  1012.1 hPa SSE 7.0 mph /  11.3 km/h 17.0 mph /  27.4 km/h 77 % 0.00 in /  0 mm
13:42 74.5 °F /  23.6 °C 66.7 °F /  19.3 °C 29.88 in /  1011.7 hPa SSE 10.0 mph /  16.1 km/h 17.0 mph /  27.4 km/h 77 % 0.00 in /  0 mm
13:47 74.1 °F /  23.4 °C 66.4 °F /  19.1 °C 29.88 in /  1011.7 hPa ESE 7.0 mph /  11.3 km/h 19.0 mph /  30.6 km/h 77 % 0.00 in /  0 mm
13:52 74.3 °F /  23.5 °C 66.9 °F /  19.4 °C 29.88 in /  1011.7 hPa SE 9.0 mph /  14.5 km/h 19.0 mph /  30.6 km/h 78 % 0.00 in /  0 mm
13:57 74.1 °F /  23.4 °C 66.7 °F /  19.3 °C 29.88 in /  1011.7 hPa ESE 11.0 mph /  17.7 km/h 19.0 mph /  30.6 km/h 78 % 0.00 in /  0 mm
14:02 73.9 °F /  23.3 °C 66.6 °F /  19.2 °C 29.88 in /  1011.7 hPa SE 6.0 mph /  9.7 km/h 17.0 mph /  27.4 km/h 78 % 0.00 in /  0 mm
14:07 73.6 °F /  23.1 °C 66.7 °F /  19.3 °C 29.88 in /  1011.7 hPa SE 5.0 mph /  8 km/h 15.0 mph /  24.1 km/h 79 % 0.00 in /  0 mm
14:12 73.4 °F /  23 °C 66.6 °F /  19.2 °C 29.87 in /  1011.4 hPa SE 6.0 mph /  9.7 km/h 16.0 mph /  25.7 km/h 79 % 0.00 in /  0 mm
14:17 73.2 °F /  22.9 °C 66.4 °F /  19.1 °C 29.87 in /  1011.4 hPa SSW 4.0 mph /  6.4 km/h 16.0 mph /  25.7 km/h 79 % 0.00 in /  0 mm
14:22 73.2 °F /  22.9 °C 66.4 °F /  19.1 °C 29.87 in /  1011.4 hPa SSE 7.0 mph /  11.3 km/h 16.0 mph /  25.7 km/h 79 % 0.00 in /  0 mm
14:27 73.2 °F /  22.9 °C 66.4 °F /  19.1 °C 29.88 in /  1011.7 hPa SE 11.0 mph /  17.7 km/h 14.0 mph /  22.5 km/h 79 % 0.00 in /  0 mm
14:32 73.2 °F /  22.9 °C 66.0 °F /  18.9 °C 29.87 in /  1011.4 hPa South 11.0 mph /  17.7 km/h 16.0 mph /  25.7 km/h 78 % 0.00 in /  0 mm
14:37 73.2 °F /  22.9 °C 66.4 °F /  19.1 °C 29.87 in /  1011.4 hPa SSE 12.0 mph /  19.3 km/h 23.0 mph /  37 km/h 79 % 0.00 in /  0 mm
14:47 73.4 °F /  23 °C 66.2 °F /  19 °C 29.87 in /  1011.4 hPa ESE 13.0 mph /  20.9 km/h 23.0 mph /  37 km/h 78 % 0.00 in /  0 mm
14:52 73.2 °F /  22.9 °C 66.0 °F /  18.9 °C 29.88 in /  1011.7 hPa SE 6.0 mph /  9.7 km/h 16.0 mph /  25.7 km/h 78 % 0.00 in /  0 mm
15:12 72.7 °F /  22.6 °C 66.2 °F /  19 °C 29.88 in /  1011.7 hPa SSE 5.0 mph /  8 km/h 15.0 mph /  24.1 km/h 80 % 0.00 in /  0 mm
15:17 72.5 °F /  22.5 °C 66.0 °F /  18.9 °C 29.88 in /  1011.7 hPa SSE 4.0 mph /  6.4 km/h 14.0 mph /  22.5 km/h 80 % 0.00 in /  0 mm
15:22 72.3 °F /  22.4 °C 66.2 °F /  19 °C 29.88 in /  1011.7 hPa SE 6.0 mph /  9.7 km/h 14.0 mph /  22.5 km/h 81 % 0.00 in /  0 mm
15:27 72.3 °F /  22.4 °C 66.2 °F /  19 °C 29.88 in /  1011.7 hPa SSE 5.0 mph /  8 km/h 11.0 mph /  17.7 km/h 81 % 0.00 in /  0 mm
15:32 72.1 °F /  22.3 °C 66.4 °F /  19.1 °C 29.87 in /  1011.4 hPa South 15.0 mph /  24.1 km/h 15.0 mph /  24.1 km/h 82 % 0.00 in /  0 mm
15:37 71.8 °F /  22.1 °C 66.4 °F /  19.1 °C 29.88 in /  1011.7 hPa South 9.0 mph /  14.5 km/h 16.0 mph /  25.7 km/h 83 % 0.00 in /  0 mm
15:42 71.6 °F /  22 °C 66.6 °F /  19.2 °C 29.87 in /  1011.4 hPa SE 9.0 mph /  14.5 km/h 16.0 mph /  25.7 km/h 84 % 0.00 in /  0 mm
15:47 71.4 °F /  21.9 °C 66.4 °F /  19.1 °C 29.87 in /  1011.4 hPa SE 8.0 mph /  12.9 km/h 16.0 mph /  25.7 km/h 84 % 0.00 in /  0 mm
15:52 71.2 °F /  21.8 °C 66.6 °F /  19.2 °C 29.87 in /  1011.4 hPa SSE 4.0 mph /  6.4 km/h 15.0 mph /  24.1 km/h 85 % 0.00 in /  0 mm
15:57 71.2 °F /  21.8 °C 66.6 °F /  19.2 °C 29.87 in /  1011.4 hPa ESE 6.0 mph /  9.7 km/h 15.0 mph /  24.1 km/h 85 % 0.00 in /  0 mm
16:02 71.2 °F /  21.8 °C 66.6 °F /  19.2 °C 29.87 in /  1011.4 hPa SSE 6.0 mph /  9.7 km/h 14.0 mph /  22.5 km/h 85 % 0.00 in /  0 mm
16:07 71.1 °F /  21.7 °C 66.7 °F /  19.3 °C 29.88 in /  1011.7 hPa SSE 7.0 mph /  11.3 km/h 12.0 mph /  19.3 km/h 86 % 0.00 in /  0 mm
16:17 70.7 °F /  21.5 °C 66.6 °F /  19.2 °C 29.87 in /  1011.4 hPa SE 5.0 mph /  8 km/h 12.0 mph /  19.3 km/h 87 % 0.00 in /  0 mm
16:27 70.5 °F /  21.4 °C 66.7 °F /  19.3 °C 29.87 in /  1011.4 hPa SSE 7.0 mph /  11.3 km/h 12.0 mph /  19.3 km/h 88 % 0.00 in /  0 mm
16:32 70.5 °F /  21.4 °C 66.7 °F /  19.3 °C 29.87 in /  1011.4 hPa South 5.0 mph /  8 km/h 11.0 mph /  17.7 km/h 88 % 0.00 in /  0 mm
16:37 70.3 °F /  21.3 °C 66.9 °F /  19.4 °C 29.87 in /  1011.4 hPa SE 9.0 mph /  14.5 km/h 12.0 mph /  19.3 km/h 89 % 0.00 in /  0 mm
16:47 70.2 °F /  21.2 °C 67.1 °F /  19.5 °C 29.87 in /  1011.4 hPa SSE 4.0 mph /  6.4 km/h 12.0 mph /  19.3 km/h 90 % 0.00 in /  0 mm
16:52 70.0 °F /  21.1 °C 66.9 °F /  19.4 °C 29.88 in /  1011.7 hPa SE 8.0 mph /  12.9 km/h 12.0 mph /  19.3 km/h 90 % 0.00 in /  0 mm
16:57 70.0 °F /  21.1 °C 66.9 °F /  19.4 °C 29.88 in /  1011.7 hPa South 6.0 mph /  9.7 km/h 12.0 mph /  19.3 km/h 90 % 0.00 in /  0 mm
17:02 70.0 °F /  21.1 °C 66.9 °F /  19.4 °C 29.87 in /  1011.4 hPa SE 10.0 mph /  16.1 km/h 12.0 mph /  19.3 km/h 90 % 0.00 in /  0 mm
17:07 70.0 °F /  21.1 °C 66.9 °F /  19.4 °C 29.86 in /  1011.1 hPa SE 9.0 mph /  14.5 km/h 12.0 mph /  19.3 km/h 90 % 0.00 in /  0 mm
17:12 70.0 °F /  21.1 °C 66.9 °F /  19.4 °C 29.86 in /  1011.1 hPa SE 3.0 mph /  4.8 km/h 13.0 mph /  20.9 km/h 90 % 0.00 in /  0 mm
17:17 69.8 °F /  21 °C 66.7 °F /  19.3 °C 29.86 in /  1011.1 hPa SE 5.0 mph /  8 km/h 13.0 mph /  20.9 km/h 90 % 0.00 in /  0 mm
17:22 69.8 °F /  21 °C 67.1 °F /  19.5 °C 29.86 in /  1011.1 hPa SE 5.0 mph /  8 km/h 13.0 mph /  20.9 km/h 91 % 0.00 in /  0 mm
17:32 69.8 °F /  21 °C 67.1 °F /  19.5 °C 29.87 in /  1011.4 hPa SE 6.0 mph /  9.7 km/h 14.0 mph /  22.5 km/h 91 % 0.00 in /  0 mm
17:37 69.8 °F /  21 °C 67.1 °F /  19.5 °C 29.88 in /  1011.7 hPa SE 8.0 mph /  12.9 km/h 14.0 mph /  22.5 km/h 91 % 0.00 in /  0 mm
17:42 69.8 °F /  21 °C 67.1 °F /  19.5 °C 29.88 in /  1011.7 hPa SE 3.0 mph /  4.8 km/h 14.0 mph /  22.5 km/h 91 % 0.00 in /  0 mm
17:47 69.6 °F /  20.9 °C 66.9 °F /  19.4 °C 29.88 in /  1011.7 hPa SE 3.0 mph /  4.8 km/h 10.0 mph /  16.1 km/h 91 % 0.00 in /  0 mm
17:52 69.6 °F /  20.9 °C 66.9 °F /  19.4 °C 29.88 in /  1011.7 hPa South 4.0 mph /  6.4 km/h 9.0 mph /  14.5 km/h 91 % 0.00 in /  0 mm
17:57 69.8 °F /  21 °C 67.1 °F /  19.5 °C 29.88 in /  1011.7 hPa ESE 5.0 mph /  8 km/h 10.0 mph /  16.1 km/h 91 % 0.00 in /  0 mm
18:02 69.6 °F /  20.9 °C 66.9 °F /  19.4 °C 29.87 in /  1011.4 hPa SE 7.0 mph /  11.3 km/h 10.0 mph /  16.1 km/h 91 % 0.00 in /  0 mm
18:07 69.6 °F /  20.9 °C 66.9 °F /  19.4 °C 29.87 in /  1011.4 hPa SE 6.0 mph /  9.7 km/h 14.0 mph /  22.5 km/h 91 % 0.00 in /  0 mm
18:12 69.6 °F /  20.9 °C 66.9 °F /  19.4 °C 29.87 in /  1011.4 hPa SSW 7.0 mph /  11.3 km/h 14.0 mph /  22.5 km/h 91 % 0.00 in /  0 mm
18:17 69.6 °F /  20.9 °C 66.9 °F /  19.4 °C 29.86 in /  1011.1 hPa SE 7.0 mph /  11.3 km/h 14.0 mph /  22.5 km/h 91 % 0.00 in /  0 mm
18:22 69.6 °F /  20.9 °C 67.3 °F /  19.6 °C 29.86 in /  1011.1 hPa ESE 6.0 mph /  9.7 km/h 13.0 mph /  20.9 km/h 92 % 0.00 in /  0 mm
18:26 69.6 °F /  20.9 °C 67.3 °F /  19.6 °C 29.86 in /  1011.1 hPa SE 7.0 mph /  11.3 km/h 13.0 mph /  20.9 km/h 92 % 0.00 in /  0 mm
18:32 69.6 °F /  20.9 °C 67.3 °F /  19.6 °C 29.87 in /  1011.4 hPa SSE 5.0 mph /  8 km/h 13.0 mph /  20.9 km/h 92 % 0.00 in /  0 mm
18:37 69.6 °F /  20.9 °C 67.3 °F /  19.6 °C 29.86 in /  1011.1 hPa ESE 6.0 mph /  9.7 km/h 13.0 mph /  20.9 km/h 92 % 0.00 in /  0 mm
18:42 69.6 °F /  20.9 °C 67.3 °F /  19.6 °C 29.85 in /  1010.7 hPa South 4.0 mph /  6.4 km/h 17.0 mph /  27.4 km/h 92 % 0.00 in /  0 mm
18:47 69.6 °F /  20.9 °C 67.3 °F /  19.6 °C 29.86 in /  1011.1 hPa South 4.0 mph /  6.4 km/h 17.0 mph /  27.4 km/h 92 % 0.00 in /  0 mm
18:52 69.6 °F /  20.9 °C 67.3 °F /  19.6 °C 29.86 in /  1011.1 hPa SSE 2.0 mph /  3.2 km/h 17.0 mph /  27.4 km/h 92 % 0.00 in /  0 mm
18:57 69.6 °F /  20.9 °C 67.3 °F /  19.6 °C 29.86 in /  1011.1 hPa SE 5.0 mph /  8 km/h 12.0 mph /  19.3 km/h 92 % 0.00 in /  0 mm
19:02 69.6 °F /  20.9 °C 67.5 °F /  19.7 °C 29.85 in /  1010.7 hPa SSE 9.0 mph /  14.5 km/h 13.0 mph /  20.9 km/h 93 % 0.00 in /  0 mm
19:07 69.6 °F /  20.9 °C 67.5 °F /  19.7 °C 29.86 in /  1011.1 hPa South 3.0 mph /  4.8 km/h 13.0 mph /  20.9 km/h 93 % 0.00 in /  0 mm
19:12 69.6 °F /  20.9 °C 67.5 °F /  19.7 °C 29.86 in /  1011.1 hPa SW 11.0 mph /  17.7 km/h 13.0 mph /  20.9 km/h 93 % 0.00 in /  0 mm
19:17 69.6 °F /  20.9 °C 67.5 °F /  19.7 °C 29.87 in /  1011.4 hPa South 5.0 mph /  8 km/h 12.0 mph /  19.3 km/h 93 % 0.00 in /  0 mm
19:22 69.6 °F /  20.9 °C 67.5 °F /  19.7 °C 29.87 in /  1011.4 hPa South 4.0 mph /  6.4 km/h 15.0 mph /  24.1 km/h 93 % 0.00 in /  0 mm
19:27 69.6 °F /  20.9 °C 67.5 °F /  19.7 °C 29.87 in /  1011.4 hPa SW 10.0 mph /  16.1 km/h 15.0 mph /  24.1 km/h 93 % 0.00 in /  0 mm
19:32 69.6 °F /  20.9 °C 67.5 °F /  19.7 °C 29.88 in /  1011.7 hPa SSE 8.0 mph /  12.9 km/h 15.0 mph /  24.1 km/h 93 % 0.00 in /  0 mm
19:37 69.8 °F /  21 °C 67.6 °F /  19.8 °C 29.88 in /  1011.7 hPa SSW 6.0 mph /  9.7 km/h 15.0 mph /  24.1 km/h 93 % 0.00 in /  0 mm
19:42 69.6 °F /  20.9 °C 67.5 °F /  19.7 °C 29.88 in /  1011.7 hPa South 6.0 mph /  9.7 km/h 15.0 mph /  24.1 km/h 93 % 0.00 in /  0 mm
19:47 69.6 °F /  20.9 °C 67.5 °F /  19.7 °C 29.87 in /  1011.4 hPa SE 11.0 mph /  17.7 km/h 15.0 mph /  24.1 km/h 93 % 0.00 in /  0 mm
19:52 69.6 °F /  20.9 °C 67.5 °F /  19.7 °C 29.88 in /  1011.7 hPa South 4.0 mph /  6.4 km/h 13.0 mph /  20.9 km/h 93 % 0.00 in /  0 mm
19:57 69.6 °F /  20.9 °C 67.5 °F /  19.7 °C 29.88 in /  1011.7 hPa ENE 2.0 mph /  3.2 km/h 13.0 mph /  20.9 km/h 93 % 0.00 in /  0 mm
20:02 69.6 °F /  20.9 °C 67.5 °F /  19.7 °C 29.88 in /  1011.7 hPa SSE 7.0 mph /  11.3 km/h 13.0 mph /  20.9 km/h 93 % 0.00 in /  0 mm
20:07 69.6 °F /  20.9 °C 67.5 °F /  19.7 °C 29.88 in /  1011.7 hPa SE 7.0 mph /  11.3 km/h 11.0 mph /  17.7 km/h 93 % 0.00 in /  0 mm
20:12 69.6 °F /  20.9 °C 67.5 °F /  19.7 °C 29.88 in /  1011.7 hPa SW 10.0 mph /  16.1 km/h 14.0 mph /  22.5 km/h 93 % 0.00 in /  0 mm
20:17 69.6 °F /  20.9 °C 67.5 °F /  19.7 °C 29.88 in /  1011.7 hPa SSE 7.0 mph /  11.3 km/h 14.0 mph /  22.5 km/h 93 % 0.00 in /  0 mm
20:22 69.6 °F /  20.9 °C 67.5 °F /  19.7 °C 29.88 in /  1011.7 hPa South 5.0 mph /  8 km/h 14.0 mph /  22.5 km/h 93 % 0.00 in /  0 mm
20:27 69.6 °F /  20.9 °C 67.5 °F /  19.7 °C 29.88 in /  1011.7 hPa SSE 6.0 mph /  9.7 km/h 14.0 mph /  22.5 km/h 93 % 0.00 in /  0 mm
20:32 69.6 °F /  20.9 °C 67.5 °F /  19.7 °C 29.88 in /  1011.7 hPa SSE 3.0 mph /  4.8 km/h 12.0 mph /  19.3 km/h 93 % 0.00 in /  0 mm
20:37 69.4 °F /  20.8 °C 67.3 °F /  19.6 °C 29.88 in /  1011.7 hPa South 9.0 mph /  14.5 km/h 12.0 mph /  19.3 km/h 93 % 0.00 in /  0 mm
20:42 69.4 °F /  20.8 °C 67.3 °F /  19.6 °C 29.88 in /  1011.7 hPa South 8.0 mph /  12.9 km/h 16.0 mph /  25.7 km/h 93 % 0.00 in /  0 mm
20:47 69.4 °F /  20.8 °C 67.3 °F /  19.6 °C 29.88 in /  1011.7 hPa South 5.0 mph /  8 km/h 16.0 mph /  25.7 km/h 93 % 0.00 in /  0 mm
20:52 69.4 °F /  20.8 °C 67.6 °F /  19.8 °C 29.88 in /  1011.7 hPa SE 5.0 mph /  8 km/h 16.0 mph /  25.7 km/h 94 % 0.00 in /  0 mm
20:57 69.3 °F /  20.7 °C 67.5 °F /  19.7 °C 29.88 in /  1011.7 hPa SE 7.0 mph /  11.3 km/h 13.0 mph /  20.9 km/h 94 % 0.00 in /  0 mm
21:02 69.3 °F /  20.7 °C 67.5 °F /  19.7 °C 29.87 in /  1011.4 hPa SE 6.0 mph /  9.7 km/h 10.0 mph /  16.1 km/h 94 % 0.00 in /  0 mm
21:12 69.3 °F /  20.7 °C 67.5 °F /  19.7 °C 29.88 in /  1011.7 hPa SE 7.0 mph /  11.3 km/h 10.0 mph /  16.1 km/h 94 % 0.00 in /  0 mm
21:17 69.1 °F /  20.6 °C 67.6 °F /  19.8 °C 29.87 in /  1011.4 hPa SE 5.0 mph /  8 km/h 11.0 mph /  17.7 km/h 95 % 0.00 in /  0 mm
21:27 68.7 °F /  20.4 °C 67.3 °F /  19.6 °C 29.88 in /  1011.7 hPa SE 7.0 mph /  11.3 km/h 12.0 mph /  19.3 km/h 95 % 0.00 in /  0 mm
21:32 68.7 °F /  20.4 °C 67.5 °F /  19.7 °C 29.87 in /  1011.4 hPa SE 5.0 mph /  8 km/h 12.0 mph /  19.3 km/h 96 % 0.00 in /  0 mm
21:42 68.5 °F /  20.3 °C 67.3 °F /  19.6 °C 29.88 in /  1011.7 hPa SW 8.0 mph /  12.9 km/h 14.0 mph /  22.5 km/h 96 % 0.00 in /  0 mm
21:47 68.5 °F /  20.3 °C 67.3 °F /  19.6 °C 29.88 in /  1011.7 hPa SSE 8.0 mph /  12.9 km/h 14.0 mph /  22.5 km/h 96 % 0.00 in /  0 mm
22:02 68.5 °F /  20.3 °C 67.6 °F /  19.8 °C 29.89 in /  1012.1 hPa SW 9.0 mph /  14.5 km/h 13.0 mph /  20.9 km/h 97 % 0.00 in /  0 mm
22:07 68.5 °F /  20.3 °C 67.6 °F /  19.8 °C 29.89 in /  1012.1 hPa SSW 6.0 mph /  9.7 km/h 13.0 mph /  20.9 km/h 97 % 0.00 in /  0 mm
22:12 68.5 °F /  20.3 °C 67.6 °F /  19.8 °C 29.89 in /  1012.1 hPa SW 4.0 mph /  6.4 km/h 11.0 mph /  17.7 km/h 97 % 0.00 in /  0 mm
22:17 68.5 °F /  20.3 °C 67.6 °F /  19.8 °C 29.89 in /  1012.1 hPa SSW 4.0 mph /  6.4 km/h 11.0 mph /  17.7 km/h 97 % 0.00 in /  0 mm
22:22 68.5 °F /  20.3 °C 67.6 °F /  19.8 °C 29.89 in /  1012.1 hPa SSW 3.0 mph /  4.8 km/h 9.0 mph /  14.5 km/h 97 % 0.00 in /  0 mm
22:27 68.4 °F /  20.2 °C 67.5 °F /  19.7 °C 29.90 in /  1012.4 hPa SSW 4.0 mph /  6.4 km/h 9.0 mph /  14.5 km/h 97 % 0.00 in /  0 mm
22:32 68.4 °F /  20.2 °C 67.1 °F /  19.5 °C 29.89 in /  1012.1 hPa SSW 1.0 mph /  1.6 km/h 9.0 mph /  14.5 km/h 96 % 0.00 in /  0 mm
22:37 68.4 °F /  20.2 °C 67.1 °F /  19.5 °C 29.89 in /  1012.1 hPa SW 5.0 mph /  8 km/h 7.0 mph /  11.3 km/h 96 % 0.00 in /  0 mm
22:47 68.2 °F /  20.1 °C 66.9 °F /  19.4 °C 29.88 in /  1011.7 hPa SSW 4.0 mph /  6.4 km/h 9.0 mph /  14.5 km/h 96 % 0.00 in /  0 mm
22:52 68.2 °F /  20.1 °C 67.3 °F /  19.6 °C 29.88 in /  1011.7 hPa SSE 4.0 mph /  6.4 km/h 10.0 mph /  16.1 km/h 97 % 0.00 in /  0 mm
22:57 68.2 °F /  20.1 °C 66.9 °F /  19.4 °C 29.86 in /  1011.1 hPa SSE 3.0 mph /  4.8 km/h 10.0 mph /  16.1 km/h 96 % 0.00 in /  0 mm
23:02 68.2 °F /  20.1 °C 67.3 °F /  19.6 °C 29.86 in /  1011.1 hPa SSW 5.0 mph /  8 km/h 11.0 mph /  17.7 km/h 97 % 0.00 in /  0 mm
23:07 68.2 °F /  20.1 °C 67.3 °F /  19.6 °C 29.86 in /  1011.1 hPa South 5.0 mph /  8 km/h 11.0 mph /  17.7 km/h 97 % 0.00 in /  0 mm
23:27 68.0 °F /  20 °C 67.1 °F /  19.5 °C 29.88 in /  1011.7 hPa SW 1.0 mph /  1.6 km/h 9.0 mph /  14.5 km/h 97 % 0.00 in /  0 mm
23:32 67.8 °F /  19.9 °C 66.9 °F /  19.4 °C 29.88 in /  1011.7 hPa South 2.0 mph /  3.2 km/h 9.0 mph /  14.5 km/h 97 % 0.00 in /  0 mm
23:37 67.8 °F /  19.9 °C 66.9 °F /  19.4 °C 29.88 in /  1011.7 hPa South 2.0 mph /  3.2 km/h 9.0 mph /  14.5 km/h 97 % 0.00 in /  0 mm
23:42 67.8 °F /  19.9 °C 66.9 °F /  19.4 °C 29.88 in /  1011.7 hPa SSE 5.0 mph /  8 km/h 6.0 mph /  9.7 km/h 97 % 0.00 in /  0 mm
23:47 67.8 °F /  19.9 °C 66.9 °F /  19.4 °C 29.88 in /  1011.7 hPa SSE 3.0 mph /  4.8 km/h 7.0 mph /  11.3 km/h 97 % 0.00 in /  0 mm
23:52 67.8 °F /  19.9 °C 66.9 °F /  19.4 °C 29.88 in /  1011.7 hPa SSE 6.0 mph /  9.7 km/h 7.0 mph /  11.3 km/h 97 % 0.00 in /  0 mm
23:57 67.8 °F /  19.9 °C 66.9 °F /  19.4 °C 29.88 in /  1011.7 hPa SW 1.0 mph /  1.6 km/h 7.0 mph /  11.3 km/h 97 % 0.00 in /  0 mm
Spring, Texas: Villages of Bridgestone
Compliments of Weather Underground - 2.75 mb

Script developed by  Jim McMurry - jmcmurry@mwt.net Adapted for the template by  Wim van der Kuil - Leuven-Template.eu

You find our weather info also at:

UK Metoffice

WeatherCloud

Weather Underground

Mid-South Weather Network

AWEKAS

Citizen Weather Observer Program (CWOP)

HAMweather, WeatherForYou, PWS Weather

Equipment we use:

Weather-station
Davis Vantage Vue

Weather-program
Meteohub

Weather-server
Debian 7.9 x86 (Guest)

Provider
DreamHost

Davis Vantage Vue

Meteohub

Debian 7.9 x86 (Guest)

DreamHost